Time;durP1;ratioP1;P1;durP2;ratioP2;P2;SDS_P1;SDS_P2;PMS_P1;PMS_P2;Temp;Humidity;BMP_temperature;BMP_pressure;BME280_temperature;BME280_humidity;BME280_pressure;Samples;Min_cycle;Max_cycle;Signal;HPM_P1;HPM_P2
2022/11/05 00:10:41;;;;;;;50.38;19.23;;;9.60;99.90;;;;;;4988031;28;20081;-58
2022/11/05 00:18:37;;;;;;;41.00;18.60;;;9.20;99.90;;;;;;4988596;28;20053;-57
2022/11/05 00:21:03;;;;;;;38.22;19.15;;;9.10;99.90;;;;;;4989339;28;20403;-57
2022/11/05 00:26:13;;;;;;;49.45;21.55;;;8.90;99.90;;;;;;4980720;28;20034;-57
2022/11/05 00:28:42;;;;;;;42.78;21.02;;;8.70;99.90;;;;;;4986759;28;20031;-57
2022/11/05 00:31:09;;;;;;;51.15;20.60;;;8.60;99.90;;;;;;4987801;28;20022;-58
2022/11/05 00:33:36;;;;;;;45.90;20.92;;;8.50;99.90;;;;;;4988459;28;20427;-56
2022/11/05 00:36:03;;;;;;;38.83;19.92;;;8.40;99.90;;;;;;4986885;28;20137;-58
2022/11/05 00:38:29;;;;;;;48.22;23.08;;;8.30;99.90;;;;;;4990595;28;20515;-56
2022/11/05 00:40:55;;;;;;;46.38;19.73;;;8.30;99.90;;;;;;4993765;28;20038;-57
2022/11/05 00:46:04;;;;;;;48.20;22.73;;;8.10;99.90;;;;;;4988089;28;20461;-58
2022/11/05 00:51:14;;;;;;;44.75;22.02;;;8.10;99.90;;;;;;4994975;28;20049;-56
2022/11/05 00:53:40;;;;;;;49.58;22.20;;;8.10;99.90;;;;;;4989045;28;20042;-55
2022/11/05 00:56:06;;;;;;;46.85;20.88;;;8.10;99.90;;;;;;4991274;28;20070;-57
2022/11/05 00:58:31;;;;;;;52.60;21.80;;;8.00;99.90;;;;;;4987242;28;20034;-58
2022/11/05 01:00:58;;;;;;;47.00;21.23;;;8.00;99.90;;;;;;4984303;28;20085;-56
2022/11/05 01:03:27;;;;;;;52.58;21.13;;;8.00;99.90;;;;;;4984306;28;20042;-55
2022/11/05 01:05:58;;;;;;;37.25;18.52;;;8.00;99.90;;;;;;4991520;28;20098;-58
2022/11/05 01:08:25;;;;;;;38.65;17.35;;;8.10;99.90;;;;;;4985191;28;20031;-55
2022/11/05 01:10:56;;;;;;;44.03;19.20;;;8.20;99.90;;;;;;4991596;28;20026;-58
2022/11/05 01:13:29;;;;;;;40.40;18.27;;;8.20;99.90;;;;;;4988454;28;20034;-57
2022/11/05 01:15:55;;;;;;;40.13;18.45;;;8.10;99.90;;;;;;4986857;28;20058;-55
2022/11/05 01:18:22;;;;;;;33.28;17.60;;;8.00;99.90;;;;;;4986252;28;20027;-57
2022/11/05 01:20:48;;;;;;;34.72;17.40;;;8.00;99.90;;;;;;4988927;28;20102;-57
2022/11/05 01:23:15;;;;;;;40.75;18.85;;;8.00;99.90;;;;;;4988104;28;20125;-57
2022/11/05 01:25:41;;;;;;;43.08;18.17;;;7.90;99.90;;;;;;4987759;28;20102;-57
2022/11/05 01:28:08;;;;;;;43.60;17.33;;;7.80;99.90;;;;;;4984703;28;20040;-55
2022/11/05 01:30:34;;;;;;;30.10;15.05;;;7.90;99.90;;;;;;4987017;28;20053;-58
2022/11/05 01:32:59;;;;;;;35.78;16.02;;;7.80;99.90;;;;;;4989058;28;20065;-58
2022/11/05 01:35:25;;;;;;;33.83;15.98;;;7.70;99.90;;;;;;4986285;28;20026;-58
2022/11/05 01:37:50;;;;;;;38.80;17.38;;;7.70;99.90;;;;;;4986951;28;20056;-58
2022/11/05 01:40:19;;;;;;;33.22;16.55;;;7.60;99.90;;;;;;4987089;28;20022;-58
2022/11/05 01:42:45;;;;;;;30.65;15.98;;;7.50;99.90;;;;;;4999550;28;20064;-57
2022/11/05 01:45:24;;;;;;;34.20;15.88;;;7.50;99.90;;;;;;4989643;28;20022;-58
2022/11/05 01:47:59;;;;;;;34.15;16.55;;;7.50;99.90;;;;;;4994865;28;20376;-58
2022/11/05 01:50:46;;;;;;;35.97;16.60;;;7.50;99.90;;;;;;4990166;28;20043;-58
2022/11/05 01:53:16;;;;;;;30.27;15.73;;;7.50;99.90;;;;;;4992027;28;20061;-57
2022/11/05 01:55:53;;;;;;;44.55;18.50;;;7.40;99.90;;;;;;4990873;28;20018;-57
2022/11/05 01:58:24;;;;;;;36.20;17.88;;;7.40;99.90;;;;;;4991238;28;20077;-57
2022/11/05 02:00:50;;;;;;;32.90;15.80;;;7.40;99.90;;;;;;4971540;28;20030;-57
2022/11/05 02:03:17;;;;;;;31.30;15.80;;;7.50;99.90;;;;;;4993264;28;20014;-57
2022/11/05 02:05:43;;;;;;;36.38;15.00;;;7.40;99.90;;;;;;4991096;28;20061;-55
2022/11/05 02:08:17;;;;;;;37.47;16.52;;;7.40;99.90;;;;;;4992603;28;20026;-55
2022/11/05 02:10:45;;;;;;;39.92;17.02;;;7.50;99.90;;;;;;4993218;28;20018;-57
2022/11/05 02:13:10;;;;;;;38.90;15.63;;;7.40;99.90;;;;;;4991761;28;20034;-57
2022/11/05 02:15:50;;;;;;;36.95;16.98;;;7.40;99.90;;;;;;5000025;28;20038;-57
2022/11/05 02:18:55;;;;;;;40.42;17.67;;;7.40;99.90;;;;;;4991488;28;20026;-56
2022/11/05 02:21:58;;;;;;;26.63;14.23;;;7.30;99.90;;;;;;4956587;28;20063;-55
2022/11/05 02:24:59;;;;;;;31.02;15.60;;;7.20;99.90;;;;;;4991497;28;20034;-58
2022/11/05 02:27:44;;;;;;;38.83;16.92;;;7.00;99.90;;;;;;4991254;28;20077;-56
2022/11/05 02:30:26;;;;;;;41.22;16.60;;;6.90;99.90;;;;;;4998009;28;20080;-57
2022/11/05 02:32:58;;;;;;;37.45;18.45;;;6.80;99.90;;;;;;4989327;28;20026;-58
2022/11/05 02:36:03;;;;;;;35.35;16.83;;;6.70;99.90;;;;;;4992887;28;20030;-57
2022/11/05 02:38:40;;;;;;;38.83;17.35;;;6.80;99.90;;;;;;4982524;28;20085;-56
2022/11/05 02:41:33;;;;;;;41.55;18.85;;;6.80;99.90;;;;;;4991826;28;20030;-56
2022/11/05 02:44:23;;;;;;;33.88;17.50;;;6.90;99.90;;;;;;4990917;28;20185;-58
2022/11/05 02:47:14;;;;;;;40.47;19.85;;;7.00;99.90;;;;;;4987693;28;20484;-54
2022/11/05 02:49:47;;;;;;;45.30;19.35;;;7.10;99.90;;;;;;4991004;28;20031;-54
2022/11/05 02:52:24;;;;;;;36.13;17.80;;;7.20;99.90;;;;;;4991188;28;20393;-57
2022/11/05 02:55:05;;;;;;;42.17;18.40;;;7.20;99.90;;;;;;4986110;28;20030;-57
2022/11/05 02:57:35;;;;;;;37.88;19.60;;;7.30;99.90;;;;;;4989197;28;20033;-55
2022/11/05 03:00:04;;;;;;;44.80;19.02;;;7.40;99.90;;;;;;4990060;28;20033;-55
2022/11/05 03:02:30;;;;;;;41.40;18.77;;;7.50;99.90;;;;;;4982283;28;20033;-57
2022/11/05 03:04:56;;;;;;;41.22;19.90;;;7.60;99.90;;;;;;4990837;28;20523;-57
2022/11/05 03:07:29;;;;;;;42.17;18.95;;;7.50;99.90;;;;;;4992472;28;20057;-57
2022/11/05 03:10:27;;;;;;;44.35;18.02;;;7.50;99.90;;;;;;4989375;28;20089;-57
2022/11/05 03:13:11;;;;;;;39.67;18.50;;;7.50;99.90;;;;;;4962988;28;20109;-56
2022/11/05 03:15:57;;;;;;;40.38;19.05;;;7.50;99.90;;;;;;4983761;28;20116;-57
2022/11/05 03:18:30;;;;;;;34.92;17.45;;;7.60;99.90;;;;;;4993797;28;20105;-58
2022/11/05 03:21:16;;;;;;;36.08;18.10;;;7.60;99.90;;;;;;4988589;28;20040;-58
2022/11/05 03:23:41;;;;;;;40.30;17.60;;;7.70;99.90;;;;;;4984495;28;20029;-57
2022/11/05 03:26:22;;;;;;;36.88;18.88;;;7.70;99.90;;;;;;4987791;28;20489;-56
2022/11/05 03:28:57;;;;;;;45.30;19.60;;;7.80;99.90;;;;;;4992681;28;20121;-58
2022/11/05 03:31:25;;;;;;;37.75;19.65;;;7.80;99.90;;;;;;4984674;28;20026;-58
2022/11/05 03:33:52;;;;;;;45.55;20.25;;;7.90;99.90;;;;;;4985043;28;20424;-57
2022/11/05 03:36:32;;;;;;;39.65;19.63;;;7.90;99.90;;;;;;4994416;28;20033;-57
2022/11/05 03:39:03;;;;;;;41.75;19.38;;;7.90;99.90;;;;;;4987879;28;20018;-58
2022/11/05 03:41:32;;;;;;;45.55;19.38;;;7.70;99.90;;;;;;4994500;28;20030;-54
2022/11/05 03:44:02;;;;;;;37.03;18.35;;;7.60;99.90;;;;;;4991319;28;20026;-57
2022/11/05 03:46:44;;;;;;;35.65;17.52;;;7.50;99.90;;;;;;4988392;28;20105;-57
2022/11/05 03:49:14;;;;;;;49.55;20.88;;;7.30;99.90;;;;;;4992357;28;20022;-58
2022/11/05 03:51:52;;;;;;;35.13;17.77;;;7.30;99.90;;;;;;5001071;28;20023;-58
2022/11/05 03:54:17;;;;;;;36.95;18.90;;;7.30;99.90;;;;;;4985532;28;20065;-56
2022/11/05 03:57:05;;;;;;;39.47;18.13;;;7.30;99.90;;;;;;4990265;28;20031;-56
2022/11/05 03:59:37;;;;;;;40.22;19.50;;;7.20;99.90;;;;;;4989162;28;20626;-57
2022/11/05 04:02:03;;;;;;;46.33;19.75;;;7.20;99.90;;;;;;4989028;28;20038;-56
2022/11/05 04:04:28;;;;;;;49.60;20.98;;;7.20;99.90;;;;;;4985429;28;20030;-57
2022/11/05 04:15:06;;;;;;;40.10;18.55;;;6.90;99.90;;;;;;4994037;28;20072;-57
2022/11/05 04:17:32;;;;;;;41.53;18.92;;;6.90;99.90;;;;;;4983930;28;20101;-56
2022/11/05 04:25:25;;;;;;;31.33;13.77;;;6.80;99.90;;;;;;4988377;28;20038;-58
2022/11/05 04:27:51;;;;;;;39.38;19.00;;;6.70;99.90;;;;;;4987873;28;20031;-58
2022/11/05 04:30:18;;;;;;;57.80;21.17;;;6.70;99.90;;;;;;4983759;28;20022;-56
2022/11/05 04:33:07;;;;;;;42.53;20.10;;;6.70;99.90;;;;;;4987559;28;20121;-56
2022/11/05 04:35:50;;;;;;;47.50;19.08;;;6.70;99.90;;;;;;5008990;23;20070;-59
2022/11/05 04:38:18;;;;;;;45.55;20.23;;;6.70;99.90;;;;;;4977096;28;20022;-60
2022/11/05 04:40:45;;;;;;;46.60;19.17;;;6.80;99.90;;;;;;4982709;28;20062;-60
2022/11/05 04:43:13;;;;;;;34.90;17.90;;;6.80;99.90;;;;;;4999860;28;20049;-60
2022/11/05 04:45:39;;;;;;;43.70;18.90;;;6.80;99.90;;;;;;4974099;28;20033;-60
2022/11/05 04:48:05;;;;;;;51.58;18.73;;;6.80;99.90;;;;;;4977084;28;20019;-60
2022/11/05 04:50:31;;;;;;;43.95;18.58;;;6.70;99.90;;;;;;4970950;28;20023;-61
2022/11/05 04:52:57;;;;;;;34.80;18.33;;;6.60;99.90;;;;;;4978015;28;20027;-59
2022/11/05 04:55:22;;;;;;;37.25;18.75;;;6.60;99.90;;;;;;4969856;28;20037;-61
2022/11/05 04:57:50;;;;;;;40.05;17.55;;;6.50;99.90;;;;;;4973661;28;20035;-61
2022/11/05 05:00:16;;;;;;;45.47;16.25;;;6.50;99.90;;;;;;4973726;28;20022;-60
2022/11/05 05:02:42;;;;;;;32.20;16.65;;;6.40;99.90;;;;;;4972560;28;20041;-60
2022/11/05 05:05:07;;;;;;;32.28;17.60;;;6.40;99.90;;;;;;4972925;28;20035;-60
2022/11/05 05:07:33;;;;;;;37.28;17.55;;;6.40;99.90;;;;;;4972331;28;20512;-60
2022/11/05 05:10:03;;;;;;;36.08;16.63;;;6.30;99.90;;;;;;4969420;28;20082;-61
2022/11/05 05:12:30;;;;;;;37.55;16.70;;;6.30;99.90;;;;;;4975606;28;20032;-59
2022/11/05 05:14:56;;;;;;;29.60;16.02;;;6.30;99.90;;;;;;4966758;28;20511;-59
2022/11/05 05:17:22;;;;;;;41.05;16.05;;;6.20;99.90;;;;;;4980653;28;20081;-61
2022/11/05 05:22:31;;;;;;;31.70;14.82;;;6.20;99.90;;;;;;4972672;28;20045;-61
2022/11/05 05:24:58;;;;;;;36.10;16.73;;;6.20;99.90;;;;;;4970533;28;20038;-61
2022/11/05 05:27:28;;;;;;;37.35;15.63;;;6.10;99.90;;;;;;4975533;28;20154;-60
2022/11/05 05:29:57;;;;;;;34.08;16.98;;;6.10;99.90;;;;;;4974645;28;20050;-60
2022/11/05 05:32:24;;;;;;;34.28;16.58;;;6.00;99.90;;;;;;4972231;28;20069;-60
2022/11/05 05:34:50;;;;;;;36.55;16.35;;;6.00;99.90;;;;;;4967077;28;20228;-60
2022/11/05 05:37:15;;;;;;;35.95;16.42;;;5.90;99.90;;;;;;4978466;28;20022;-61
2022/11/05 05:39:43;;;;;;;29.90;15.52;;;6.00;99.90;;;;;;4971501;28;20030;-59
2022/11/05 05:42:09;;;;;;;31.85;16.83;;;6.10;99.90;;;;;;4973693;28;20533;-61
2022/11/05 05:44:34;;;;;;;34.40;16.05;;;5.90;99.90;;;;;;4976745;28;20022;-61
2022/11/05 05:47:00;;;;;;;38.85;15.82;;;5.90;99.90;;;;;;4970293;28;20373;-61
2022/11/05 05:49:25;;;;;;;33.88;14.20;;;5.80;99.90;;;;;;4969134;28;20515;-60
2022/11/05 05:51:51;;;;;;;30.92;14.25;;;5.80;99.90;;;;;;4952163;28;20019;-61
2022/11/05 05:54:16;;;;;;;38.10;17.10;;;5.70;99.90;;;;;;4972233;28;20027;-61
2022/11/05 05:56:43;;;;;;;33.53;16.30;;;5.70;99.90;;;;;;4972088;28;20098;-61
2022/11/05 05:59:08;;;;;;;33.80;16.90;;;5.70;99.90;;;;;;4972370;28;20030;-61
2022/11/05 06:01:34;;;;;;;36.63;16.63;;;5.80;99.90;;;;;;4972940;28;20019;-61
2022/11/05 06:03:59;;;;;;;35.00;15.98;;;5.80;99.90;;;;;;4972626;28;20043;-60
2022/11/05 06:06:25;;;;;;;40.70;16.88;;;5.70;99.90;;;;;;4973598;28;20023;-62
2022/11/05 06:08:50;;;;;;;40.08;16.60;;;5.60;99.90;;;;;;4974398;28;20105;-61
2022/11/05 06:11:16;;;;;;;34.85;15.40;;;5.50;99.90;;;;;;4971318;28;20030;-61
2022/11/05 06:13:42;;;;;;;37.08;17.58;;;5.30;99.90;;;;;;4970438;28;20101;-57
2022/11/05 06:16:08;;;;;;;34.63;15.90;;;5.30;99.90;;;;;;4974140;28;20054;-62
2022/11/05 06:18:35;;;;;;;32.13;15.52;;;5.20;99.90;;;;;;4971315;28;20049;-61
2022/11/05 06:21:12;;;;;;;37.10;15.63;;;5.10;99.90;;;;;;4973067;28;20505;-59
2022/11/05 06:23:39;;;;;;;35.05;15.73;;;5.10;99.90;;;;;;4979276;28;20049;-62
2022/11/05 06:26:09;;;;;;;33.72;15.98;;;5.10;99.90;;;;;;4970772;28;20050;-60
2022/11/05 06:28:34;;;;;;;40.13;16.27;;;5.10;99.90;;;;;;4971497;28;20019;-59
2022/11/05 06:31:00;;;;;;;40.40;16.92;;;5.10;99.90;;;;;;4976806;28;20034;-61
2022/11/05 06:33:26;;;;;;;32.58;15.18;;;5.20;99.90;;;;;;4981971;28;20018;-61
2022/11/05 06:35:53;;;;;;;36.97;15.07;;;5.10;99.90;;;;;;4973913;28;20127;-62
2022/11/05 06:38:19;;;;;;;33.50;16.00;;;5.00;99.90;;;;;;4975350;28;20060;-61
2022/11/05 06:40:44;;;;;;;41.63;18.30;;;5.10;99.90;;;;;;4973506;28;20022;-62
2022/11/05 06:43:10;;;;;;;57.72;19.13;;;5.10;99.90;;;;;;4980594;28;20022;-62
2022/11/05 06:45:36;;;;;;;33.65;16.08;;;5.10;99.90;;;;;;4974634;28;20235;-61
2022/11/05 06:48:01;;;;;;;33.92;16.65;;;5.10;99.90;;;;;;4976918;28;20500;-61
2022/11/05 06:50:27;;;;;;;35.08;14.77;;;5.20;99.90;;;;;;4973846;28;20038;-61
2022/11/05 06:53:02;;;;;;;37.00;16.42;;;5.10;99.90;;;;;;4978212;28;20042;-59
2022/11/05 06:55:29;;;;;;;36.08;16.00;;;5.10;99.90;;;;;;4973949;28;20037;-61
2022/11/05 06:57:55;;;;;;;38.65;15.55;;;5.10;99.90;;;;;;4975129;28;20027;-61
2022/11/05 07:00:21;;;;;;;37.58;15.98;;;5.10;99.90;;;;;;4972646;28;20025;-60
2022/11/05 07:02:47;;;;;;;40.75;16.67;;;5.00;99.90;;;;;;4975084;28;20027;-59
2022/11/05 07:05:15;;;;;;;38.33;16.45;;;5.10;99.90;;;;;;4974103;28;20050;-61
2022/11/05 07:07:42;;;;;;;39.75;16.60;;;5.00;99.90;;;;;;4973669;28;20029;-61
2022/11/05 07:10:11;;;;;;;39.13;15.43;;;5.00;99.90;;;;;;4976851;28;20138;-61
2022/11/05 07:12:37;;;;;;;36.08;15.13;;;5.00;99.90;;;;;;4970753;28;20184;-58
2022/11/05 07:15:07;;;;;;;34.33;16.30;;;5.10;99.90;;;;;;4978364;28;20136;-61
2022/11/05 07:17:32;;;;;;;32.85;15.23;;;5.10;99.90;;;;;;4968592;28;20094;-61
2022/11/05 07:19:58;;;;;;;27.67;14.02;;;5.10;99.90;;;;;;4966491;28;20043;-61
2022/11/05 07:22:23;;;;;;;35.72;15.10;;;5.10;99.90;;;;;;4971976;28;20039;-60
2022/11/05 07:24:49;;;;;;;36.45;16.30;;;5.20;99.90;;;;;;4982985;28;20819;-61
2022/11/05 07:27:15;;;;;;;37.17;15.55;;;5.30;99.90;;;;;;4974962;28;20085;-62
2022/11/05 07:29:41;;;;;;;34.15;14.68;;;5.40;99.90;;;;;;4965649;28;20026;-61
2022/11/05 07:32:06;;;;;;;41.72;16.52;;;5.40;99.90;;;;;;4970388;28;20099;-60
2022/11/05 07:34:32;;;;;;;33.05;14.27;;;5.40;99.90;;;;;;4971349;28;20022;-59
2022/11/05 07:36:58;;;;;;;32.17;15.65;;;5.40;99.90;;;;;;4978489;28;20518;-61
2022/11/05 07:39:24;;;;;;;36.65;16.40;;;5.40;99.90;;;;;;4980654;28;20041;-62
2022/11/05 07:41:54;;;;;;;32.40;15.05;;;5.40;99.90;;;;;;4975170;28;20027;-61
2022/11/05 07:44:20;;;;;;;39.70;16.90;;;5.50;99.90;;;;;;4969462;28;20033;-61
2022/11/05 07:46:46;;;;;;;34.10;16.17;;;5.50;99.90;;;;;;4971197;28;20381;-63
2022/11/05 07:49:11;;;;;;;36.30;16.40;;;5.60;99.90;;;;;;4977133;28;20031;-61
2022/11/05 07:51:37;;;;;;;34.03;16.15;;;5.60;99.90;;;;;;4971834;28;20038;-59
2022/11/05 07:54:02;;;;;;;36.63;15.35;;;5.70;99.90;;;;;;4976689;28;20047;-62
2022/11/05 07:56:29;;;;;;;37.33;15.45;;;5.80;99.90;;;;;;4972608;28;20026;-62
2022/11/05 07:58:54;;;;;;;36.25;15.60;;;5.90;99.90;;;;;;4958156;28;20480;-62
2022/11/05 08:01:20;;;;;;;36.92;15.48;;;5.90;99.90;;;;;;4974413;28;20506;-61
2022/11/05 08:03:45;;;;;;;40.47;16.67;;;6.00;99.90;;;;;;4970576;28;20031;-62
2022/11/05 08:06:11;;;;;;;32.53;14.68;;;6.10;99.90;;;;;;4973189;28;20037;-61
2022/11/05 08:08:36;;;;;;;35.50;15.23;;;6.20;99.90;;;;;;4952945;28;20041;-61
2022/11/05 08:11:04;;;;;;;34.00;14.85;;;6.30;99.90;;;;;;4971876;28;20062;-58
2022/11/05 08:13:29;;;;;;;31.50;14.43;;;6.40;99.90;;;;;;4972302;28;20022;-60
2022/11/05 08:15:56;;;;;;;31.20;14.93;;;6.50;99.90;;;;;;4971984;28;20019;-61
2022/11/05 08:18:22;;;;;;;45.45;15.90;;;6.60;99.90;;;;;;4964850;28;20023;-61
2022/11/05 08:20:48;;;;;;;34.92;15.38;;;6.70;99.90;;;;;;4937179;28;20034;-61
2022/11/05 08:23:14;;;;;;;36.78;15.15;;;6.80;99.90;;;;;;4978700;28;20747;-61
2022/11/05 08:25:40;;;;;;;37.03;16.33;;;6.90;99.90;;;;;;4972653;28;20058;-62
2022/11/05 08:28:09;;;;;;;37.35;14.68;;;7.00;99.90;;;;;;4973787;28;20027;-60
2022/11/05 08:30:35;;;;;;;35.25;15.82;;;7.10;99.90;;;;;;4974223;28;20042;-62
2022/11/05 08:33:04;;;;;;;39.67;15.15;;;7.20;99.90;;;;;;4974773;28;20031;-62
2022/11/05 08:35:29;;;;;;;28.17;13.70;;;7.20;99.90;;;;;;4976087;28;20034;-62
2022/11/05 08:37:57;;;;;;;34.13;13.50;;;7.40;99.90;;;;;;4976054;28;20650;-63
2022/11/05 08:40:22;;;;;;;33.80;15.32;;;7.40;99.90;;;;;;4976821;28;20030;-62
2022/11/05 08:42:48;;;;;;;33.45;14.25;;;7.50;99.90;;;;;;4970970;28;20034;-62
2022/11/05 08:45:13;;;;;;;40.22;16.13;;;7.50;99.90;;;;;;4974649;28;20492;-61
2022/11/05 08:47:39;;;;;;;39.08;14.77;;;7.70;99.90;;;;;;4981139;28;20018;-62
2022/11/05 08:50:05;;;;;;;29.85;14.00;;;7.90;99.90;;;;;;4974267;28;20037;-61
2022/11/05 08:52:31;;;;;;;30.30;14.05;;;8.00;99.90;;;;;;4966543;28;20062;-61
2022/11/05 08:54:56;;;;;;;32.00;13.85;;;8.20;99.90;;;;;;4973549;28;20030;-59
2022/11/05 08:57:22;;;;;;;27.13;13.35;;;8.20;99.90;;;;;;4975776;28;20027;-61
2022/11/05 08:59:48;;;;;;;33.97;12.55;;;8.40;99.90;;;;;;4976462;28;20038;-62
2022/11/05 09:02:13;;;;;;;29.38;11.98;;;8.60;99.90;;;;;;4980702;28;20038;-61
2022/11/05 09:04:39;;;;;;;35.53;10.82;;;8.70;99.90;;;;;;4975581;28;20034;-55
2022/11/05 09:07:04;;;;;;;26.35;11.35;;;8.80;99.90;;;;;;4970807;28;20071;-53
2022/11/05 09:09:30;;;;;;;29.38;11.07;;;8.90;99.90;;;;;;4974708;28;20499;-52
2022/11/05 09:11:55;;;;;;;25.88;11.73;;;9.00;99.90;;;;;;4963637;28;20030;-55
2022/11/05 09:14:21;;;;;;;26.30;10.73;;;9.20;99.90;;;;;;4972611;28;20026;-53
2022/11/05 09:16:46;;;;;;;18.02;9.07;;;9.20;99.90;;;;;;4973456;28;20037;-53
2022/11/05 09:19:12;;;;;;;18.50;7.15;;;9.40;99.90;;;;;;4970942;28;20062;-57
2022/11/05 09:21:37;;;;;;;23.88;7.22;;;9.60;99.90;;;;;;4973366;28;20037;-54
2022/11/05 09:24:03;;;;;;;19.95;7.20;;;9.60;99.90;;;;;;4969059;28;20073;-55
2022/11/05 09:26:29;;;;;;;20.27;6.95;;;9.70;99.90;;;;;;4974398;28;20078;-52
2022/11/05 09:28:54;;;;;;;22.80;6.47;;;9.90;99.90;;;;;;4967244;28;20018;-56
2022/11/05 09:31:20;;;;;;;13.10;6.10;;;9.90;99.90;;;;;;4969867;28;20031;-60
2022/11/05 09:33:46;;;;;;;20.42;6.15;;;10.00;99.90;;;;;;4968381;28;20038;-55
2022/11/05 09:36:11;;;;;;;15.63;6.15;;;10.10;99.90;;;;;;4971027;28;20578;-55
2022/11/05 09:38:37;;;;;;;14.88;5.40;;;10.20;99.90;;;;;;4951291;28;20086;-56
2022/11/05 09:41:28;;;;;;;12.10;6.22;;;10.20;99.90;;;;;;4938857;28;20027;-55
2022/11/05 09:43:59;;;;;;;14.10;5.50;;;10.30;99.90;;;;;;4946478;28;20027;-58
2022/11/05 09:46:52;;;;;;;12.15;5.32;;;10.40;99.90;;;;;;4970322;28;20029;-58
2022/11/05 09:49:30;;;;;;;17.67;5.40;;;10.60;99.90;;;;;;4965885;28;20023;-55
2022/11/05 09:51:57;;;;;;;13.85;4.90;;;10.60;99.90;;;;;;4969577;28;20023;-56
2022/11/05 09:54:28;;;;;;;17.75;4.85;;;10.70;99.90;;;;;;4974658;28;20038;-54
2022/11/05 09:56:54;;;;;;;13.45;5.40;;;10.70;99.90;;;;;;4971145;28;20043;-56
2022/11/05 09:59:35;;;;;;;14.35;4.65;;;10.70;99.90;;;;;;4971097;28;20479;-55
2022/11/05 10:02:17;;;;;;;17.38;4.40;;;10.80;99.90;;;;;;4970681;28;20512;-55
2022/11/05 10:04:46;;;;;;;14.48;5.55;;;10.80;99.90;;;;;;4976829;28;20041;-55
2022/11/05 10:07:17;;;;;;;13.57;4.57;;;10.90;99.90;;;;;;4975314;28;20049;-54
2022/11/05 10:09:46;;;;;;;11.95;4.88;;;11.00;99.90;;;;;;4972730;28;20034;-54
2022/11/05 10:12:17;;;;;;;9.15;4.43;;;11.10;99.90;;;;;;4972744;28;20054;-51
2022/11/05 10:14:47;;;;;;;7.28;3.63;;;11.20;99.90;;;;;;4972761;28;20130;-52
2022/11/05 10:17:15;;;;;;;14.80;4.47;;;11.30;99.90;;;;;;4976218;28;20037;-53
2022/11/05 10:19:49;;;;;;;8.50;4.40;;;11.30;99.90;;;;;;4975249;28;20038;-54
2022/11/05 10:22:17;;;;;;;12.65;3.67;;;11.40;99.90;;;;;;4973306;28;20073;-54
2022/11/05 10:24:48;;;;;;;12.13;4.68;;;11.40;99.90;;;;;;4973247;28;20058;-58
2022/11/05 10:27:22;;;;;;;9.85;3.92;;;11.40;99.90;;;;;;4974500;28;20042;-57
2022/11/05 10:29:49;;;;;;;5.28;3.33;;;11.60;99.90;;;;;;4969865;28;20477;-55
2022/11/05 10:32:32;;;;;;;10.98;4.90;;;11.60;99.90;;;;;;4969610;28;20400;-56
2022/11/05 10:35:00;;;;;;;15.65;3.72;;;11.70;99.90;;;;;;4973946;28;20089;-55
2022/11/05 10:37:27;;;;;;;13.82;4.35;;;11.80;99.90;;;;;;4980059;28;20026;-52
2022/11/05 10:39:53;;;;;;;10.52;4.20;;;11.80;99.90;;;;;;4975641;28;20063;-57
2022/11/05 10:42:43;;;;;;;8.55;3.25;;;11.70;99.90;;;;;;4976592;28;20065;-58
2022/11/05 10:45:52;;;;;;;10.93;3.28;;;11.90;99.90;;;;;;4970996;28;20456;-55
2022/11/05 10:48:36;;;;;;;6.03;2.35;;;11.90;99.90;;;;;;4942722;28;20050;-52
2022/11/05 10:51:01;;;;;;;6.72;2.20;;;12.00;99.90;;;;;;4972517;28;20038;-55
2022/11/05 10:53:33;;;;;;;13.13;2.78;;;12.10;99.90;;;;;;4971540;28;20047;-55
2022/11/05 10:55:59;;;;;;;7.53;2.53;;;12.30;99.90;;;;;;4978589;28;20031;-54
2022/11/05 10:58:30;;;;;;;8.95;2.60;;;12.30;99.90;;;;;;4972225;28;20034;-55
2022/11/05 11:00:55;;;;;;;15.88;3.78;;;12.40;99.90;;;;;;4974585;28;20030;-58
2022/11/05 11:03:41;;;;;;;11.48;2.75;;;12.60;99.90;;;;;;4976022;28;20029;-57
2022/11/05 11:06:25;;;;;;;12.00;2.30;;;12.50;99.90;;;;;;4976168;28;20625;-55
2022/11/05 11:08:52;;;;;;;3.35;1.27;;;12.60;99.90;;;;;;4969601;28;20019;-53
2022/11/05 11:11:34;;;;;;;11.13;2.08;;;12.70;99.90;;;;;;4969534;28;20038;-55
2022/11/05 11:14:10;;;;;;;6.68;1.83;;;12.80;99.90;;;;;;4969483;28;20045;-55
2022/11/05 11:16:43;;;;;;;6.60;1.50;;;12.90;99.90;;;;;;4969850;28;20061;-53
2022/11/05 11:19:33;;;;;;;9.90;1.83;;;12.90;99.90;;;;;;4975228;28;20043;-56
2022/11/05 11:22:04;;;;;;;3.30;1.17;;;13.00;99.90;;;;;;4963542;28;20074;-52
2022/11/05 11:24:37;;;;;;;7.28;2.42;;;12.90;99.90;;;;;;4976859;28;20045;-53
2022/11/05 11:27:09;;;;;;;7.20;1.67;;;12.70;99.90;;;;;;4971619;28;20034;-53
2022/11/05 11:29:38;;;;;;;7.13;2.00;;;12.70;99.90;;;;;;4974525;28;20512;-54
2022/11/05 11:32:12;;;;;;;11.68;1.85;;;12.70;99.90;;;;;;4969652;28;20109;-53
2022/11/05 11:34:39;;;;;;;3.13;1.10;;;12.60;99.90;;;;;;4968067;28;20046;-55
2022/11/05 11:37:17;;;;;;;4.43;1.40;;;12.50;99.90;;;;;;4975668;28;20114;-55
2022/11/05 11:39:47;;;;;;;6.53;1.65;;;12.50;99.90;;;;;;4967134;28;20027;-58
2022/11/05 11:42:40;;;;;;;2.45;1.05;;;12.50;99.90;;;;;;4974113;28;20529;-55
2022/11/05 11:45:16;;;;;;;4.60;1.38;;;12.70;99.90;;;;;;4970471;28;20046;-57
2022/11/05 11:47:44;;;;;;;7.85;1.60;;;13.00;99.90;;;;;;4968239;28;20023;-56
2022/11/05 11:50:38;;;;;;;6.03;1.77;;;13.10;99.90;;;;;;4966704;28;20026;-57
2022/11/05 11:53:19;;;;;;;2.58;1.20;;;13.30;99.90;;;;;;4974968;28;20043;-56
2022/11/05 11:55:53;;;;;;;2.33;1.15;;;13.30;99.90;;;;;;4969780;28;20031;-53
2022/11/05 11:58:24;;;;;;;2.85;1.35;;;13.30;99.90;;;;;;4967341;28;20030;-58
2022/11/05 12:01:03;;;;;;;8.18;0.90;;;13.30;99.90;;;;;;4965043;28;20066;-56
2022/11/05 12:03:48;;;;;;;8.55;1.60;;;13.20;99.90;;;;;;4970295;28;20396;-58
2022/11/05 12:06:32;;;;;;;5.53;1.13;;;13.10;99.90;;;;;;4965338;28;20019;-54
2022/11/05 12:09:19;;;;;;;4.57;1.20;;;12.90;99.90;;;;;;4967326;28;20062;-55
2022/11/05 12:12:09;;;;;;;4.03;1.77;;;12.90;99.90;;;;;;4972135;28;20758;-52
2022/11/05 12:14:34;;;;;;;5.72;1.20;;;12.80;99.90;;;;;;4965446;28;20050;-56
2022/11/05 12:17:15;;;;;;;8.13;1.00;;;12.90;99.90;;;;;;4974672;28;20060;-57
2022/11/05 12:19:59;;;;;;;5.32;1.10;;;12.90;99.90;;;;;;4971210;28;20057;-57
2022/11/05 12:22:39;;;;;;;6.85;1.23;;;12.90;99.90;;;;;;4966508;28;20029;-57
2022/11/05 12:25:21;;;;;;;2.65;1.10;;;12.70;99.90;;;;;;4975676;28;20497;-56
2022/11/05 12:28:09;;;;;;;4.55;1.30;;;12.70;99.90;;;;;;4979157;28;20027;-58
2022/11/05 12:31:18;;;;;;;3.17;1.17;;;12.60;99.90;;;;;;4970358;28;20038;-57
2022/11/05 12:33:46;;;;;;;5.93;1.30;;;12.60;99.90;;;;;;4973119;28;20023;-57
2022/11/05 12:36:25;;;;;;;8.80;1.20;;;12.70;99.90;;;;;;4973532;28;20493;-57
2022/11/05 12:39:19;;;;;;;12.77;1.40;;;12.70;99.90;;;;;;4976894;28;20258;-54
2022/11/05 12:41:51;;;;;;;7.25;1.25;;;12.70;99.90;;;;;;4980793;28;20025;-57
2022/11/05 12:44:23;;;;;;;2.83;1.30;;;12.80;99.90;;;;;;4973645;28;20038;-56
2022/11/05 12:47:33;;;;;;;3.60;1.33;;;12.70;99.90;;;;;;4980289;28;20022;-56
2022/11/05 12:50:28;;;;;;;3.60;1.45;;;12.70;99.90;;;;;;4874096;29;20110;-58
2022/11/05 12:53:30;;;;;;;2.72;1.35;;;12.70;99.90;;;;;;4969127;28;20157;-59
2022/11/05 12:56:00;;;;;;;15.45;1.67;;;12.80;99.90;;;;;;4974704;28;20031;-56
2022/11/05 12:58:31;;;;;;;8.77;1.65;;;12.70;99.90;;;;;;4969937;28;20366;-54
2022/11/05 13:01:05;;;;;;;5.57;1.38;;;12.60;99.90;;;;;;4970444;28;20030;-53
2022/11/05 13:03:37;;;;;;;6.32;1.60;;;12.70;99.90;;;;;;4975297;28;20070;-58
2022/11/05 13:06:11;;;;;;;4.30;1.20;;;12.60;99.90;;;;;;4971996;28;20069;-56
2022/11/05 13:08:50;;;;;;;6.22;1.70;;;12.70;99.90;;;;;;4971545;28;20023;-58
2022/11/05 13:11:33;;;;;;;11.38;1.85;;;12.70;99.90;;;;;;4972436;28;20029;-56
2022/11/05 13:14:16;;;;;;;9.27;1.40;;;12.70;99.90;;;;;;4974388;28;20105;-54
2022/11/05 13:17:11;;;;;;;2.63;1.27;;;12.70;99.90;;;;;;4973405;28;20030;-56
2022/11/05 13:19:53;;;;;;;4.95;1.60;;;12.80;99.90;;;;;;4947357;28;20042;-55
2022/11/05 13:22:43;;;;;;;7.75;1.50;;;12.80;99.90;;;;;;4973359;28;20030;-56
2022/11/05 13:25:17;;;;;;;4.97;1.45;;;12.70;99.90;;;;;;4976397;28;20061;-53
2022/11/05 13:27:48;;;;;;;3.20;1.13;;;12.60;99.90;;;;;;4970569;28;20019;-55
2022/11/05 13:30:36;;;;;;;3.33;1.52;;;12.60;99.90;;;;;;4965087;28;20027;-54
2022/11/05 13:33:10;;;;;;;4.43;1.33;;;12.60;99.90;;;;;;4971086;28;20093;-55
2022/11/05 13:35:42;;;;;;;2.63;1.33;;;12.60;99.90;;;;;;4976223;28;20161;-56
2022/11/05 13:41:25;;;;;;;1.92;1.15;;;12.60;99.90;;;;;;4974917;28;20089;-54
2022/11/05 13:44:22;;;;;;;2.90;1.20;;;12.60;99.90;;;;;;4973602;28;20023;-54